Buoy 62910

sailwx.info

Track history (hours):
 
Tides and Currents Weather Stations Pressure Air Temp Water Temp Dewpoint Dewpoint Depression Visibility Wind Speed Wind Dir Waves Ship Positions

Drifting buoy 62910

Last reported at 2014-Oct-21 04:11 UTC. Time now 2014-Oct-21 05:35 UTC.
Position N 40°28' E 004°20'.

Water temperature 23.7 ° C

Date/timePositionNaut miles runAvg speedWind from/ knotsBaromVisibWave heightAir tempDewpointWater temp
2014-Oct-21 04:11N 40°28' E 004°20'0 2.3 23.7
2014-Oct-21 04:03N 40°28' E 004°20'0 0.0 23.7
2014-Oct-21 03:50N 40°28' E 004°20'0 3.1 23.7
2014-Oct-21 03:43N 40°28' E 004°20'0 0.0 23.8
2014-Oct-21 02:08N 40°28' E 004°20'0 0.0 23.8
2014-Oct-21 01:59N 40°28' E 004°20'1 0.8 23.8
2014-Oct-21 00:27N 40°27' E 004°21'0 8.8 23.8
2014-Oct-21 00:24N 40°27' E 004°21'0 0.0 23.8
2014-Oct-20 22:02N 40°27' E 004°21'0 0.0 23.9
2014-Oct-20 21:57N 40°27' E 004°21'0 0.0 23.9
2014-Oct-20 21:53N 40°27' E 004°21'0 0.0 23.9
2014-Oct-20 21:14N 40°27' E 004°21'1 5.4 23.9
2014-Oct-20 21:06N 40°26' E 004°21'0 0.2 23.9
2014-Oct-20 20:20N 40°26' E 004°21'0 0.0 23.9
2014-Oct-20 20:14N 40°26' E 004°21'0 0.6 23.9
2014-Oct-20 19:27N 40°26' E 004°21'0 0.1 23.9
2014-Oct-20 18:43N 40°26' E 004°21'1 4.5 23.9
2014-Oct-20 18:35N 40°26' E 004°22'0 0.0 23.9
2014-Oct-20 18:11N 40°26' E 004°22'1 1.2 23.9
2014-Oct-20 17:30N 40°25' E 004°21'0 0.0 24.0
2014-Oct-20 17:05N 40°25' E 004°21'0 0.0 24.0
2014-Oct-20 17:00N 40°25' E 004°21'0 6.1 24.0
2014-Oct-20 16:57N 40°25' E 004°21'0 0.0 24.0
2014-Oct-20 16:32N 40°25' E 004°21'0 0.1 24.0
2014-Oct-20 15:46N 40°25' E 004°21'0 0.5 24.1
2014-Oct-20 15:26N 40°25' E 004°22'0 0.0 24.2
2014-Oct-20 14:51N 40°25' E 004°22'0 0.0 24.2
2014-Oct-20 14:07N 40°25' E 004°22'0 6.1 24.1
2014-Oct-20 14:03N 40°25' E 004°22'0 0.0 24.1
2014-Oct-20 13:48N 40°25' E 004°22'0 0.2 24.1
2014-Oct-20 12:14N 40°24' E 004°22'0 0.4
2014-Oct-20 12:02N 40°24' E 004°22'0 0.8 23.9
2014-Oct-20 11:28N 40°24' E 004°22'0 0.1
2014-Oct-20 10:38N 40°24' E 004°22'0 0.5 23.9
2014-Oct-20 09:54N 40°24' E 004°23'0 0.0 23.8
2014-Oct-20 09:51N 40°24' E 004°23'0 3.7 23.8
2014-Oct-20 09:45N 40°24' E 004°22'0 0.0 23.8
2014-Oct-20 09:00N 40°24' E 004°22'0 0.0 23.8
2014-Oct-20 08:58N 40°24' E 004°22'0 0.6 23.8
2014-Oct-20 08:05N 40°23' E 004°22'0 0.0
2014-Oct-20 06:49N 40°23' E 004°22'0 2.1 23.7
2014-Oct-20 06:45N 40°23' E 004°22'0 0.3 23.7
2014-Oct-20 06:31N 40°24' E 004°22'0 0.9 23.7
2014-Oct-20 06:05N 40°23' E 004°23'0 1.4 23.7
2014-Oct-20 06:01N 40°23' E 004°23'0 5.1 23.7
2014-Oct-20 05:56N 40°23' E 004°22'0 0.0 23.8
2014-Oct-20 05:08N 40°23' E 004°22'0 1.0 23.8
2014-Oct-20 04:54N 40°23' E 004°22'1 0.4 23.8
2014-Oct-20 03:12N 40°22' E 004°23'0 0.0 23.8
2014-Oct-20 02:36N 40°22' E 004°23'0 0.0 23.8
2014-Oct-20 02:22N 40°22' E 004°23'0 3.0 23.8
2014-Oct-20 02:19N 40°22' E 004°23'0 0.2 23.8
2014-Oct-20 00:38N 40°23' E 004°23'1 0.3 23.8
2014-Oct-19 22:24N 40°22' E 004°24'1 5.1 23.9
2014-Oct-19 22:18N 40°22' E 004°23'111.8 23.9
2014-Oct-19 22:15N 40°22' E 004°24'0 0.4 23.9
2014-Oct-19 21:32N 40°22' E 004°24'0 0.0 23.9
2014-Oct-19 21:29N 40°22' E 004°24'110.6 23.9
2014-Oct-19 21:25N 40°22' E 004°24'0 0.0 23.9
2014-Oct-19 20:43N 40°22' E 004°24'0 1.6 23.9
2014-Oct-19 20:36N 40°21' E 004°24'0 0.0 23.9
2014-Oct-19 19:52N 40°21' E 004°24'0 3.3
2014-Oct-19 19:46N 40°21' E 004°24'0 0.0 23.9
2014-Oct-19 19:11N 40°21' E 004°24'1 4.3 23.9
2014-Oct-19 19:00N 40°22' E 004°24'0 0.0 23.9
2014-Oct-19 18:34N 40°22' E 004°24'0 0.4 23.9
2014-Oct-19 17:43N 40°22' E 004°24'1 1.8 24.0
2014-Oct-19 16:55N 40°21' E 004°24'0 0.0 24.0
2014-Oct-19 16:02N 40°21' E 004°24'0 2.6 24.0
2014-Oct-19 15:53N 40°21' E 004°25'1 1.1 24.0
2014-Oct-19 15:14N 40°20' E 004°25'0 0.0 24.0
2014-Oct-19 14:20N 40°20' E 004°25'0 0.7 24.1
2014-Oct-19 14:16N 40°20' E 004°25'0 0.6 24.1
2014-Oct-19 14:00N 40°20' E 004°25'0 0.2 24.1
2014-Oct-19 12:14N 40°20' E 004°25'0 3.1 23.9
2014-Oct-19 12:09N 40°20' E 004°25'0 0.0 23.9
2014-Oct-19 11:46N 40°20' E 004°25'0 0.1 23.9
2014-Oct-19 10:58N 40°20' E 004°25'0 6.1 23.8
2014-Oct-19 10:55N 40°20' E 004°25'0 0.2 23.8
2014-Oct-19 10:10N 40°20' E 004°26'0 0.0 23.8
2014-Oct-19 09:19N 40°20' E 004°26'0 0.4 23.7
2014-Oct-19 08:31N 40°20' E 004°26'0 0.0 23.7
2014-Oct-19 07:35N 40°20' E 004°26'0 0.0 23.7
2014-Oct-19 07:14N 40°20' E 004°26'0 0.0 23.6
2014-Oct-19 07:10N 40°20' E 004°26'0 0.0 23.6
2014-Oct-19 07:03N 40°20' E 004°26'1 0.8 23.6
2014-Oct-19 06:15N 40°19' E 004°26'0 3.1 23.6
2014-Oct-19 06:08N 40°19' E 004°27'0 0.1 23.6
2014-Oct-19 05:33N 40°19' E 004°27'0 2.2 23.6
2014-Oct-19 05:21N 40°19' E 004°26'1 1.1 23.6
2014-Oct-19 04:35N 40°19' E 004°27'0 0.4 23.7
2014-Oct-19 04:10N 40°18' E 004°27'0 2.2 23.7
2014-Oct-19 04:05N 40°18' E 004°27'0 0.0 23.7
2014-Oct-19 03:49N 40°18' E 004°27'0 0.0 23.7
2014-Oct-19 03:42N 40°18' E 004°27'0 0.4 23.7
2014-Oct-19 02:51N 40°18' E 004°27'0 0.0 23.7
2014-Oct-19 02:33N 40°18' E 004°27'0 0.7 23.7
2014-Oct-19 02:29N 40°18' E 004°27'0 0.2 23.7
2014-Oct-19 00:50N 40°18' E 004°28'0 0.0 23.7
2014-Oct-19 00:47N 40°18' E 004°28'1 0.2 23.7
2014-Oct-18 22:43N 40°18' E 004°28'0 4.3 23.7
2014-Oct-18 22:38N 40°18' E 004°28'0 0.0 23.7
2014-Oct-18 21:55N 40°18' E 004°28'1 3.9 23.7
2014-Oct-18 21:47N 40°18' E 004°29'0 0.0 23.7
2014-Oct-18 21:04N 40°18' E 004°29'1 9.6 23.7
2014-Oct-18 20:57N 40°18' E 004°28'0 0.0 23.7
2014-Oct-18 20:54N 40°18' E 004°28'0 0.0 23.7
2014-Oct-18 20:17N 40°18' E 004°28'1 5.5 23.7
2014-Oct-18 20:09N 40°18' E 004°28'0 2.6 23.7
2014-Oct-18 20:06N 40°18' E 004°28'0 0.0 23.7
2014-Oct-18 19:45N 40°18' E 004°28'0 0.9 23.7
2014-Oct-18 19:41N 40°18' E 004°28'1 1.8 23.7
2014-Oct-18 19:16N 40°17' E 004°29'0 0.0 23.8
2014-Oct-18 18:08N 40°17' E 004°29'0 0.0 23.8
2014-Oct-18 17:20N 40°17' E 004°29'0 0.4 23.9
2014-Oct-18 16:15N 40°17' E 004°29'0 9.1 23.9
2014-Oct-18 16:13N 40°17' E 004°29'0 0.4 23.9
2014-Oct-18 15:41N 40°17' E 004°29'0 0.1 23.9
2014-Oct-18 14:34N 40°17' E 004°29'0 4.1 24.0
2014-Oct-18 14:27N 40°17' E 004°29'0 0.9 24.0
2014-Oct-18 14:11N 40°17' E 004°29'1 0.3 24.0
2014-Oct-18 12:30N 40°16' E 004°29'1 0.5 23.9
2014-Oct-18 11:18N 40°16' E 004°30'0 0.3 23.9
2014-Oct-18 10:44N 40°16' E 004°30'0 0.0
2014-Oct-18 10:35N 40°16' E 004°30'1 0.6 23.8
2014-Oct-18 09:44N 40°16' E 004°30'0 0.0
2014-Oct-18 09:41N 40°16' E 004°30'0 0.0 23.6
2014-Oct-18 09:35N 40°16' E 004°30'0 0.4 23.6
2014-Oct-18 08:48N 40°16' E 004°31'0 0.0 23.6
2014-Oct-18 07:56N 40°16' E 004°31'1 1.7 23.6
2014-Oct-18 07:33N 40°15' E 004°31'0 0.0 23.6
2014-Oct-18 06:26N 40°15' E 004°31'0 3.7 23.6
2014-Oct-18 06:23N 40°15' E 004°31'0 2.2 23.6
2014-Oct-18 06:19N 40°15' E 004°31'0 0.0 23.6
2014-Oct-18 06:01N 40°15' E 004°31'0 2.2 23.6
2014-Oct-18 05:58N 40°15' E 004°31'0 0.0 23.6
2014-Oct-18 05:56N 40°15' E 004°31'0 0.4 23.6
2014-Oct-18 04:51N 40°15' E 004°31'0 0.0 23.6
2014-Oct-18 04:46N 40°15' E 004°31'0 0.1 23.6
2014-Oct-18 02:58N 40°15' E 004°31'0 0.0
2014-Oct-18 02:44N 40°15' E 004°31'0 2.7 23.6
2014-Oct-18 02:40N 40°15' E 004°31'0 0.2 23.6
2014-Oct-18 01:03N 40°15' E 004°31'0 0.0 23.6
2014-Oct-18 00:58N 40°15' E 004°31'0 0.2 23.6
2014-Oct-17 23:03N 40°14' E 004°32'0 0.0 23.6
2014-Oct-17 21:24N 40°14' E 004°32'0 2.9 23.6
2014-Oct-17 21:19N 40°14' E 004°32'0 0.0 23.6
2014-Oct-17 20:38N 40°14' E 004°32'0 0.0 23.7
2014-Oct-17 20:26N 40°14' E 004°32'0 0.0 23.6
2014-Oct-17 20:15N 40°14' E 004°32'0 0.0 23.7
2014-Oct-17 19:41N 40°14' E 004°32'0 3.9 23.6
2014-Oct-17 19:36N 40°14' E 004°31'0 0.0 23.6
2014-Oct-17 18:57N 40°14' E 004°31'0 0.0 23.7
2014-Oct-17 18:34N 40°14' E 004°31'1 1.7 23.7
2014-Oct-17 17:45N 40°14' E 004°33'1 1.5 23.7
2014-Oct-17 16:52N 40°13' E 004°32'0 0.0
2014-Oct-17 16:25N 40°13' E 004°32'0 1.2 23.8
2014-Oct-17 16:06N 40°13' E 004°32'0 0.2 23.8
2014-Oct-17 14:43N 40°13' E 004°32'0 4.5 23.8
2014-Oct-17 14:38N 40°13' E 004°33'0 1.7 23.8
2014-Oct-17 14:22N 40°13' E 004°33'1 0.3 23.8
2014-Oct-17 11:37N 40°13' E 004°34'0 0.0 23.7
2014-Oct-17 10:58N 40°13' E 004°34'0 0.8 23.7
2014-Oct-17 10:51N 40°13' E 004°34'0 0.3 23.7
2014-Oct-17 10:02N 40°13' E 004°34'0 0.1 23.6
2014-Oct-17 09:09N 40°13' E 004°34'0 0.0 23.6
2014-Oct-17 08:23N 40°13' E 004°34'0 1.1 23.6
2014-Oct-17 08:19N 40°13' E 004°34'0 7.7 23.6
2014-Oct-17 08:16N 40°13' E 004°34'1 0.4 23.6
2014-Oct-17 06:32N 40°13' E 004°35'0 0.0 23.6
2014-Oct-17 06:16N 40°13' E 004°35'0 0.0 23.6
2014-Oct-17 05:00N 40°13' E 004°35'0 4.2 23.6
2014-Oct-17 04:56N 40°13' E 004°34'0 0.0 23.6
2014-Oct-17 04:44N 40°13' E 004°34'0 0.0 23.6
2014-Oct-17 04:40N 40°13' E 004°34'1 3.6 23.6
2014-Oct-17 04:28N 40°13' E 004°33'0 0.0 23.6
2014-Oct-17 03:14N 40°13' E 004°33'0 0.0 23.6
2014-Oct-17 03:05N 40°13' E 004°33'0 1.6 23.6
2014-Oct-17 02:54N 40°14' E 004°34'0 5.4 23.6
2014-Oct-17 02:49N 40°13' E 004°33'0 0.0 23.6
2014-Oct-17 01:14N 40°13' E 004°33'0 0.0 23.6
2014-Oct-17 01:10N 40°13' E 004°33'0 0.2 23.6
2014-Oct-16 22:31N 40°13' E 004°34'1 0.8 23.6
2014-Oct-16 21:38N 40°13' E 004°33'0 0.0 23.6
2014-Oct-16 20:58N 40°13' E 004°33'0 0.5 23.6
2014-Oct-16 20:49N 40°13' E 004°33'0 0.0 23.6
2014-Oct-16 20:43N 40°13' E 004°33'0 0.0
2014-Oct-16 20:03N 40°13' E 004°33'0 4.2 23.7
2014-Oct-16 19:57N 40°13' E 004°34'0 0.3 23.7
2014-Oct-16 19:12N 40°13' E 004°34'0 0.0 23.7
2014-Oct-16 19:04N 40°13' E 004°34'0 0.0 23.7
2014-Oct-16 18:06N 40°13' E 004°34'0 0.1 23.7
2014-Oct-16 14:54N 40°13' E 004°34'0 6.3 23.7
2014-Oct-16 14:50N 40°13' E 004°34'0 0.2 23.7
2014-Oct-16 12:52N 40°13' E 004°34'0 0.5 23.7
2014-Oct-16 12:46N 40°13' E 004°35'0 0.0 23.7
2014-Oct-16 11:57N 40°13' E 004°35'2 2.6 23.7
2014-Oct-16 11:13N 40°13' E 004°32'0 0.0 23.7
2014-Oct-16 11:09N 40°13' E 004°32'0 0.0 23.7
2014-Oct-16 09:32N 40°13' E 004°32'215.0 23.7
2014-Oct-16 09:25N 40°13' E 004°34'0 0.1 23.7
2014-Oct-16 05:16N 40°13' E 004°34'0 0.7 23.7
2014-Oct-16 05:07N 40°12' E 004°34'0 0.0 23.7
2014-Oct-16 05:00N 40°12' E 004°34'0 0.1 23.7
2014-Oct-16 03:07N 40°13' E 004°34'1 0.2 23.7
2014-Oct-15 22:07N 40°12' E 004°35'0 0.2 23.7
2014-Oct-15 21:15N 40°12' E 004°35'0 0.2 23.8
2014-Oct-15 20:26N 40°12' E 004°35'1 6.8 23.8
2014-Oct-15 20:15N 40°13' E 004°36'0 0.0 23.8
2014-Oct-15 19:31N 40°13' E 004°36'1 0.4 23.8
2014-Oct-15 16:56N 40°12' E 004°35'1 0.9 23.9
2014-Oct-15 16:19N 40°12' E 004°36'1 0.5 23.9
2014-Oct-15 15:13N 40°12' E 004°35'0 2.6 23.9
2014-Oct-15 15:08N 40°12' E 004°35'0 0.7 23.9
2014-Oct-15 14:41N 40°12' E 004°35'0 0.0 23.9
2014-Oct-15 13:24N 40°12' E 004°35'0 0.0 23.9
2014-Oct-15 13:02N 40°12' E 004°35'0 0.0 23.9
2014-Oct-15 12:57N 40°12' E 004°35'0 0.1 23.9
2014-Oct-15 10:43N 40°12' E 004°36'0 2.7 23.8
2014-Oct-15 10:39N 40°12' E 004°36'110.8 23.8
2014-Oct-15 10:36N 40°12' E 004°36'0 0.0 23.8
2014-Oct-15 09:57N 40°12' E 004°36'0 1.8 23.8
2014-Oct-15 09:52N 40°12' E 004°36'0 0.2 23.8
2014-Oct-15 09:00N 40°12' E 004°36'2 1.0 23.7
2014-Oct-15 07:06N 40°12' E 004°38'0 0.0 23.8
2014-Oct-15 06:57N 40°12' E 004°38'0 0.4 23.8
2014-Oct-15 05:48N 40°12' E 004°38'1 3.9 23.8
2014-Oct-15 05:30N 40°11' E 004°36'1 6.4 23.8
2014-Oct-15 05:18N 40°11' E 004°38'0 0.0 23.8
2014-Oct-15 04:04N 40°11' E 004°38'0 0.0 23.8
2014-Oct-15 03:41N 40°11' E 004°38'114.9 23.8
2014-Oct-15 03:37N 40°11' E 004°37'0 0.0 23.8
2014-Oct-15 03:16N 40°11' E 004°37'0 1.6 23.8
2014-Oct-15 03:12N 40°11' E 004°37'1 0.6 23.8
2014-Oct-15 01:33N 40°11' E 004°38'0 0.0 23.9
2014-Oct-14 22:26N 40°11' E 004°38'0 0.0 23.9
2014-Oct-14 21:39N 40°11' E 004°38'0 1.4 23.9
2014-Oct-14 21:31N 40°11' E 004°38'0 0.0 23.9
2014-Oct-14 20:44N 40°11' E 004°38'0 0.0 23.9
2014-Oct-14 20:37N 40°11' E 004°38'1 0.4 23.9
2014-Oct-14 19:01N 40°12' E 004°39'1 0.4 23.9
2014-Oct-14 17:17N 40°11' E 004°39'246.2 23.9
2014-Oct-14 17:15N 40°12' E 004°40'2 0.9 23.9
2014-Oct-14 15:38N 40°11' E 004°38'0 0.3 23.9
2014-Oct-14 15:17N 40°11' E 004°38'0 0.9 23.9
2014-Oct-14 14:54N 40°11' E 004°39'1 1.0 23.9
2014-Oct-14 13:33N 40°10' E 004°38'0 0.0 23.9
2014-Oct-14 13:17N 40°10' E 004°38'0 0.0 23.9
2014-Oct-14 13:10N 40°10' E 004°38'1 0.5 23.9
2014-Oct-14 11:27N 40°09' E 004°38'0 0.0 23.9
2014-Oct-14 11:01N 40°09' E 004°38'0 0.0 23.9
2014-Oct-14 10:15N 40°09' E 004°38'0 0.0 23.9
2014-Oct-14 10:11N 40°09' E 004°38'1 0.7 23.9
2014-Oct-14 09:25N 40°10' E 004°39'0 0.9 23.9
2014-Oct-14 09:22N 40°10' E 004°39'2 2.6 23.9
2014-Oct-14 08:32N 40°08' E 004°40'2 2.4 23.9
2014-Oct-14 07:39N 40°10' E 004°39'243.0 23.9
2014-Oct-14 07:36N 40°08' E 004°40'232.2 23.9
2014-Oct-14 07:32N 40°10' E 004°39'0 1.1 23.9
2014-Oct-14 07:08N 40°09' E 004°39'0 0.0 23.9
2014-Oct-14 06:20N 40°09' E 004°39'0 0.0 23.9
2014-Oct-14 05:59N 40°09' E 004°39'0 0.3 24.0
2014-Oct-14 05:34N 40°09' E 004°39'0 0.0 24.0
2014-Oct-14 05:30N 40°09' E 004°39'2 1.3 24.0
2014-Oct-14 04:11N 40°10' E 004°41'0 0.0 24.0
2014-Oct-14 03:50N 40°10' E 004°41'0 0.0 24.0
2014-Oct-14 03:23N 40°10' E 004°41'233.5 24.0
2014-Oct-14 03:20N 40°10' E 004°39'0 0.0 24.0
2014-Oct-14 01:44N 40°10' E 004°39'1 0.4 24.0
2014-Oct-14 00:00N 40°10' E 004°39'0 0.0 24.0
2014-Oct-13 22:46N 40°10' E 004°39'0 6.9 24.0
2014-Oct-13 22:42N 40°10' E 004°40'1 1.4 24.1
2014-Oct-13 21:51N 40°09' E 004°39'0 0.0 24.1
2014-Oct-13 21:07N 40°09' E 004°39'1 4.4 24.1
2014-Oct-13 21:00N 40°10' E 004°39'1 0.7 24.1
2014-Oct-13 20:09N 40°09' E 004°39'0 0.0 24.1
2014-Oct-13 19:23N 40°09' E 004°39'0 6.8 24.1
2014-Oct-13 19:19N 40°09' E 004°39'0 0.3 24.1
2014-Oct-13 17:38N 40°09' E 004°40'0 0.0 24.2
2014-Oct-13 17:07N 40°09' E 004°40'0 0.0 24.2
2014-Oct-13 16:01N 40°09' E 004°40'0 0.0 24.2
2014-Oct-13 15:29N 40°09' E 004°40'0 1.1 24.2
2014-Oct-13 15:05N 40°08' E 004°39'0 0.0 24.2
2014-Oct-13 14:21N 40°08' E 004°39'0 0.0 24.2
2014-Oct-13 13:49N 40°08' E 004°39'0 0.5 24.2
2014-Oct-13 13:24N 40°08' E 004°39'0 0.1 24.2
2014-Oct-13 11:42N 40°08' E 004°39'0 0.0 24.2
2014-Oct-13 11:22N 40°08' E 004°39'1 0.5 24.2
2014-Oct-13 09:47N 40°09' E 004°39'0 0.0 24.2
2014-Oct-13 09:43N 40°09' E 004°39'0 0.0 24.2
2014-Oct-13 08:57N 40°09' E 004°39'0 0.0 24.2
2014-Oct-13 06:52N 40°09' E 004°39'0 0.0 24.2
2014-Oct-13 06:22N 40°09' E 004°39'0 0.5 24.2
2014-Oct-13 05:41N 40°09' E 004°39'0 0.0 24.2
2014-Oct-13 05:36N 40°09' E 004°39'0 0.0
2014-Oct-13 05:13N 40°09' E 004°39'0 0.0 24.2
2014-Oct-13 04:41N 40°09' E 004°39'0 0.4 24.2
2014-Oct-13 04:02N 40°09' E 004°39'0 0.3 24.2
2014-Oct-13 03:34N 40°09' E 004°39'0 0.0 24.2
2014-Oct-13 03:32N 40°09' E 004°39'124.9 24.2
2014-Oct-13 03:29N 40°08' E 004°39'1 0.5
2014-Oct-13 01:53N 40°08' E 004°38'0 0.1 24.3
2014-Oct-12 22:16N 40°08' E 004°39'0 0.0
2014-Oct-12 21:28N 40°08' E 004°39'1 8.2 24.3
2014-Oct-12 21:18N 40°07' E 004°37'0 0.0 24.3
2014-Oct-12 20:37N 40°07' E 004°37'0 0.0 24.3
2014-Oct-12 20:30N 40°07' E 004°37'0 0.0 24.3
2014-Oct-12 19:44N 40°07' E 004°37'339.0 24.3
2014-Oct-12 19:39N 40°09' E 004°41'0 0.0 24.3
2014-Oct-12 18:56N 40°09' E 004°41'0 0.0 24.3
2014-Oct-12 18:09N 40°09' E 004°41'1 1.4 24.4
2014-Oct-12 17:19N 40°08' E 004°40'0 0.0 24.4
2014-Oct-12 16:26N 40°08' E 004°40'0 0.0 24.4
2014-Oct-12 15:42N 40°08' E 004°40'0 0.0 24.4
2014-Oct-12 15:33N 40°08' E 004°40'0 0.0 24.4
2014-Oct-12 15:12N 40°08' E 004°40'0 0.0 24.4
2014-Oct-12 14:47N 40°08' E 004°40'1 0.6 24.4
2014-Oct-12 13:52N 40°08' E 004°39'0 0.0 24.4
2014-Oct-12 13:35N 40°08' E 004°39'0 0.1 24.4
2014-Oct-12 11:52N 40°08' E 004°39'0 1.4 24.4
2014-Oct-12 11:40N 40°08' E 004°39'0 0.3 24.3
2014-Oct-12 10:54N 40°08' E 004°39'1 7.4 24.3
2014-Oct-12 10:49N 40°07' E 004°39'0 0.1 24.3
2014-Oct-12 10:05N 40°07' E 004°39'1 1.7 24.3
2014-Oct-12 09:13N 40°07' E 004°37'1 1.4 24.3
2014-Oct-12 08:24N 40°07' E 004°38'0 5.3 24.3
2014-Oct-12 08:20N 40°07' E 004°39'0 0.0 24.3
2014-Oct-12 07:22N 40°07' E 004°39'0 0.0 24.3
2014-Oct-12 06:48N 40°07' E 004°39'1 4.7 24.3
2014-Oct-12 06:40N 40°06' E 004°38'0 0.1 24.3
2014-Oct-12 05:52N 40°06' E 004°38'0 0.6 24.3
2014-Oct-12 05:45N 40°06' E 004°38'0 0.1 24.3
2014-Oct-12 05:06N 40°06' E 004°38'0 0.3 24.3
2014-Oct-12 04:15N 40°06' E 004°38'0 0.8 24.3
2014-Oct-12 03:47N 40°06' E 004°39'0 3.3 24.3
2014-Oct-12 03:41N 40°06' E 004°38'0 0.0 24.3
2014-Oct-12 03:22N 40°06' E 004°38'0 0.0
2014-Oct-12 02:11N 40°06' E 004°38'0 0.0 24.3
2014-Oct-12 02:08N 40°06' E 004°38'0 0.0 24.3
2014-Oct-12 01:59N 40°06' E 004°38'0 0.0
2014-Oct-12 00:27N 40°06' E 004°38'0 5.7 24.4
2014-Oct-12 00:22N 40°06' E 004°38'0 0.0 24.4
2014-Oct-11 21:50N 40°06' E 004°38'0 1.3 24.5
2014-Oct-11 21:39N 40°06' E 004°38'0 0.0 24.5
2014-Oct-11 20:51N 40°06' E 004°38'0 0.0 24.5
2014-Oct-11 20:09N 40°06' E 004°38'0 5.8 24.5
2014-Oct-11 20:04N 40°05' E 004°38'0 0.1 24.5
2014-Oct-11 19:18N 40°05' E 004°38'0 1.5 24.5
2014-Oct-11 19:12N 40°05' E 004°38'0 0.0 24.5
2014-Oct-11 18:30N 40°05' E 004°38'0 0.0 24.5
2014-Oct-11 17:28N 40°05' E 004°38'0 0.7 24.6
2014-Oct-11 16:49N 40°05' E 004°39'028.5 24.7
2014-Oct-11 16:48N 40°05' E 004°38'0 0.5 24.7
2014-Oct-11 15:53N 40°05' E 004°39'0 5.0 24.8
2014-Oct-11 15:48N 40°05' E 004°38'0 0.4 24.8
2014-Oct-11 15:23N 40°05' E 004°38'0 0.1 24.9
2014-Oct-11 14:10N 40°05' E 004°38'0 6.5 25.1
2014-Oct-11 14:07N 40°05' E 004°38'0 0.9 25.1
2014-Oct-11 13:47N 40°05' E 004°38'0 0.1 25.1
2014-Oct-11 12:01N 40°05' E 004°38'0 0.0 25.1
2014-Oct-11 11:14N 40°05' E 004°38'0 0.5
2014-Oct-11 10:28N 40°05' E 004°38'0 0.0 24.8
2014-Oct-11 10:24N 40°05' E 004°38'011.1 24.8
2014-Oct-11 10:22N 40°04' E 004°38'0 0.1 24.8
2014-Oct-11 07:12N 40°04' E 004°37'0 0.8 24.3
2014-Oct-11 07:06N 40°04' E 004°37'0 0.0 24.3
2014-Oct-11 06:15N 40°04' E 004°37'0 0.7 24.3
2014-Oct-11 06:03N 40°04' E 004°37'230.6 24.3
2014-Oct-11 05:59N 40°03' E 004°40'0 0.0 24.3
2014-Oct-11 05:29N 40°03' E 004°40'2 1.9 24.4
2014-Oct-11 04:31N 40°04' E 004°38'0 1.3 24.3
2014-Oct-11 04:17N 40°04' E 004°37'   24.3
Track history (hours):
 
Tides and Currents Weather Stations Pressure Air Temp Water Temp Dewpoint Dewpoint Depression Visibility Wind Speed Wind Dir Waves Ship Positions

Drifting buoy 62910

Last reported at 2014-Oct-21 04:11 UTC. Time now 2014-Oct-21 05:35 UTC.
Position N 40°28' E 004°20'.

Water temperature 23.7 ° C

Date/timePositionNaut miles runAvg speedWind from/ knotsBaromVisibWave heightAir tempDewpointWater temp
2014-Oct-21 04:11N 40°28' E 004°20'0 2.3 23.7
2014-Oct-21 04:03N 40°28' E 004°20'0 0.0 23.7
2014-Oct-21 03:50N 40°28' E 004°20'0 3.1 23.7
2014-Oct-21 03:43N 40°28' E 004°20'0 0.0 23.8
2014-Oct-21 02:08N 40°28' E 004°20'0 0.0 23.8
2014-Oct-21 01:59N 40°28' E 004°20'1 0.8 23.8
2014-Oct-21 00:27N 40°27' E 004°21'0 8.8 23.8
2014-Oct-21 00:24N 40°27' E 004°21'0 0.0 23.8
2014-Oct-20 22:02N 40°27' E 004°21'0 0.0 23.9
2014-Oct-20 21:57N 40°27' E 004°21'0 0.0 23.9
2014-Oct-20 21:53N 40°27' E 004°21'0 0.0 23.9
2014-Oct-20 21:14N 40°27' E 004°21'1 5.4 23.9
2014-Oct-20 21:06N 40°26' E 004°21'0 0.2 23.9
2014-Oct-20 20:20N 40°26' E 004°21'0 0.0 23.9
2014-Oct-20 20:14N 40°26' E 004°21'0 0.6 23.9
2014-Oct-20 19:27N 40°26' E 004°21'0 0.1 23.9
2014-Oct-20 18:43N 40°26' E 004°21'1 4.5 23.9
2014-Oct-20 18:35N 40°26' E 004°22'0 0.0 23.9
2014-Oct-20 18:11N 40°26' E 004°22'1 1.2 23.9
2014-Oct-20 17:30N 40°25' E 004°21'0 0.0 24.0
2014-Oct-20 17:05N 40°25' E 004°21'0 0.0 24.0
2014-Oct-20 17:00N 40°25' E 004°21'0 6.1 24.0
2014-Oct-20 16:57N 40°25' E 004°21'0 0.0 24.0
2014-Oct-20 16:32N 40°25' E 004°21'0 0.1 24.0
2014-Oct-20 15:46N 40°25' E 004°21'0 0.5 24.1
2014-Oct-20 15:26N 40°25' E 004°22'0 0.0 24.2
2014-Oct-20 14:51N 40°25' E 004°22'0 0.0 24.2
2014-Oct-20 14:07N 40°25' E 004°22'0 6.1 24.1
2014-Oct-20 14:03N 40°25' E 004°22'0 0.0 24.1
2014-Oct-20 13:48N 40°25' E 004°22'0 0.2 24.1
2014-Oct-20 12:14N 40°24' E 004°22'0 0.4
2014-Oct-20 12:02N 40°24' E 004°22'0 0.8 23.9
2014-Oct-20 11:28N 40°24' E 004°22'0 0.1
2014-Oct-20 10:38N 40°24' E 004°22'0 0.5 23.9
2014-Oct-20 09:54N 40°24' E 004°23'0 0.0 23.8
2014-Oct-20 09:51N 40°24' E 004°23'0 3.7 23.8
2014-Oct-20 09:45N 40°24' E 004°22'0 0.0 23.8
2014-Oct-20 09:00N 40°24' E 004°22'0 0.0 23.8
2014-Oct-20 08:58N 40°24' E 004°22'0 0.6 23.8
2014-Oct-20 08:05N 40°23' E 004°22'0 0.0
2014-Oct-20 06:49N 40°23' E 004°22'0 2.1 23.7
2014-Oct-20 06:45N 40°23' E 004°22'0 0.3 23.7
2014-Oct-20 06:31N 40°24' E 004°22'0 0.9 23.7
2014-Oct-20 06:05N 40°23' E 004°23'0 1.4 23.7
2014-Oct-20 06:01N 40°23' E 004°23'0 5.1 23.7
2014-Oct-20 05:56N 40°23' E 004°22'0 0.0 23.8
2014-Oct-20 05:08N 40°23' E 004°22'0 1.0 23.8
2014-Oct-20 04:54N 40°23' E 004°22'1 0.4 23.8
2014-Oct-20 03:12N 40°22' E 004°23'0 0.0 23.8
2014-Oct-20 02:36N 40°22' E 004°23'0 0.0 23.8
2014-Oct-20 02:22N 40°22' E 004°23'0 3.0 23.8
2014-Oct-20 02:19N 40°22' E 004°23'0 0.2 23.8
2014-Oct-20 00:38N 40°23' E 004°23'1 0.3 23.8
2014-Oct-19 22:24N 40°22' E 004°24'1 5.1 23.9
2014-Oct-19 22:18N 40°22' E 004°23'111.8 23.9
2014-Oct-19 22:15N 40°22' E 004°24'0 0.4 23.9
2014-Oct-19 21:32N 40°22' E 004°24'0 0.0 23.9
2014-Oct-19 21:29N 40°22' E 004°24'110.6 23.9
2014-Oct-19 21:25N 40°22' E 004°24'0 0.0 23.9
2014-Oct-19 20:43N 40°22' E 004°24'0 1.6 23.9
2014-Oct-19 20:36N 40°21' E 004°24'0 0.0 23.9
2014-Oct-19 19:52N 40°21' E 004°24'0 3.3
2014-Oct-19 19:46N 40°21' E 004°24'0 0.0 23.9
2014-Oct-19 19:11N 40°21' E 004°24'1 4.3 23.9
2014-Oct-19 19:00N 40°22' E 004°24'0 0.0 23.9
2014-Oct-19 18:34N 40°22' E 004°24'0 0.4 23.9
2014-Oct-19 17:43N 40°22' E 004°24'1 1.8 24.0
2014-Oct-19 16:55N 40°21' E 004°24'0 0.0 24.0
2014-Oct-19 16:02N 40°21' E 004°24'0 2.6 24.0
2014-Oct-19 15:53N 40°21' E 004°25'1 1.1 24.0
2014-Oct-19 15:14N 40°20' E 004°25'0 0.0 24.0
2014-Oct-19 14:20N 40°20' E 004°25'0 0.7 24.1
2014-Oct-19 14:16N 40°20' E 004°25'0 0.6 24.1
2014-Oct-19 14:00N 40°20' E 004°25'0 0.2 24.1
2014-Oct-19 12:14N 40°20' E 004°25'0 3.1 23.9
2014-Oct-19 12:09N 40°20' E 004°25'0 0.0 23.9
2014-Oct-19 11:46N 40°20' E 004°25'0 0.1 23.9
2014-Oct-19 10:58N 40°20' E 004°25'0 6.1 23.8
2014-Oct-19 10:55N 40°20' E 004°25'0 0.2 23.8
2014-Oct-19 10:10N 40°20' E 004°26'0 0.0 23.8
2014-Oct-19 09:19N 40°20' E 004°26'0 0.4 23.7
2014-Oct-19 08:31N 40°20' E 004°26'0 0.0 23.7
2014-Oct-19 07:35N 40°20' E 004°26'0 0.0 23.7
2014-Oct-19 07:14N 40°20' E 004°26'0 0.0 23.6
2014-Oct-19 07:10N 40°20' E 004°26'0 0.0 23.6
2014-Oct-19 07:03N 40°20' E 004°26'1 0.8 23.6
2014-Oct-19 06:15N 40°19' E 004°26'0 3.1 23.6
2014-Oct-19 06:08N 40°19' E 004°27'0 0.1 23.6
2014-Oct-19 05:33N 40°19' E 004°27'0 2.2 23.6
2014-Oct-19 05:21N 40°19' E 004°26'1 1.1 23.6
2014-Oct-19 04:35N 40°19' E 004°27'0 0.4 23.7
2014-Oct-19 04:10N 40°18' E 004°27'0 2.2 23.7
2014-Oct-19 04:05N 40°18' E 004°27'0 0.0 23.7
2014-Oct-19 03:49N 40°18' E 004°27'0 0.0 23.7
2014-Oct-19 03:42N 40°18' E 004°27'0 0.4 23.7
2014-Oct-19 02:51N 40°18' E 004°27'0 0.0 23.7
2014-Oct-19 02:33N 40°18' E 004°27'0 0.7 23.7
2014-Oct-19 02:29N 40°18' E 004°27'0 0.2 23.7
2014-Oct-19 00:50N 40°18' E 004°28'0 0.0 23.7
2014-Oct-19 00:47N 40°18' E 004°28'1 0.2 23.7
2014-Oct-18 22:43N 40°18' E 004°28'0 4.3 23.7
2014-Oct-18 22:38N 40°18' E 004°28'0 0.0 23.7
2014-Oct-18 21:55N 40°18' E 004°28'1 3.9 23.7
2014-Oct-18 21:47N 40°18' E 004°29'0 0.0 23.7
2014-Oct-18 21:04N 40°18' E 004°29'1 9.6 23.7
2014-Oct-18 20:57N 40°18' E 004°28'0 0.0 23.7
2014-Oct-18 20:54N 40°18' E 004°28'0 0.0 23.7
2014-Oct-18 20:17N 40°18' E 004°28'1 5.5 23.7
2014-Oct-18 20:09N 40°18' E 004°28'0 2.6 23.7
2014-Oct-18 20:06N 40°18' E 004°28'0 0.0 23.7
2014-Oct-18 19:45N 40°18' E 004°28'0 0.9 23.7
2014-Oct-18 19:41N 40°18' E 004°28'1 1.8 23.7
2014-Oct-18 19:16N 40°17' E 004°29'0 0.0 23.8
2014-Oct-18 18:08N 40°17' E 004°29'0 0.0 23.8
2014-Oct-18 17:20N 40°17' E 004°29'0 0.4 23.9
2014-Oct-18 16:15N 40°17' E 004°29'0 9.1 23.9
2014-Oct-18 16:13N 40°17' E 004°29'0 0.4 23.9
2014-Oct-18 15:41N 40°17' E 004°29'0 0.1 23.9
2014-Oct-18 14:34N 40°17' E 004°29'0 4.1 24.0
2014-Oct-18 14:27N 40°17' E 004°29'0 0.9 24.0
2014-Oct-18 14:11N 40°17' E 004°29'1 0.3 24.0
2014-Oct-18 12:30N 40°16' E 004°29'1 0.5 23.9
2014-Oct-18 11:18N 40°16' E 004°30'0 0.3 23.9
2014-Oct-18 10:44N 40°16' E 004°30'0 0.0
2014-Oct-18 10:35N 40°16' E 004°30'1 0.6 23.8
2014-Oct-18 09:44N 40°16' E 004°30'0 0.0
2014-Oct-18 09:41N 40°16' E 004°30'0 0.0 23.6
2014-Oct-18 09:35N 40°16' E 004°30'0 0.4 23.6
2014-Oct-18 08:48N 40°16' E 004°31'0 0.0 23.6
2014-Oct-18 07:56N 40°16' E 004°31'1 1.7 23.6
2014-Oct-18 07:33N 40°15' E 004°31'0 0.0 23.6
2014-Oct-18 06:26N 40°15' E 004°31'0 3.7 23.6
2014-Oct-18 06:23N 40°15' E 004°31'0 2.2 23.6
2014-Oct-18 06:19N 40°15' E 004°31'0 0.0 23.6
2014-Oct-18 06:01N 40°15' E 004°31'0 2.2 23.6
2014-Oct-18 05:58N 40°15' E 004°31'0 0.0 23.6
2014-Oct-18 05:56N 40°15' E 004°31'0 0.4 23.6
2014-Oct-18 04:51N 40°15' E 004°31'0 0.0 23.6
2014-Oct-18 04:46N 40°15' E 004°31'0 0.1 23.6
2014-Oct-18 02:58N 40°15' E 004°31'0 0.0
2014-Oct-18 02:44N 40°15' E 004°31'0 2.7 23.6
2014-Oct-18 02:40N 40°15' E 004°31'0 0.2 23.6
2014-Oct-18 01:03N 40°15' E 004°31'0 0.0 23.6
2014-Oct-18 00:58N 40°15' E 004°31'0 0.2 23.6
2014-Oct-17 23:03N 40°14' E 004°32'0 0.0 23.6
2014-Oct-17 21:24N 40°14' E 004°32'0 2.9 23.6
2014-Oct-17 21:19N 40°14' E 004°32'0 0.0 23.6
2014-Oct-17 20:38N 40°14' E 004°32'0 0.0 23.7
2014-Oct-17 20:26N 40°14' E 004°32'0 0.0 23.6
2014-Oct-17 20:15N 40°14' E 004°32'0 0.0 23.7
2014-Oct-17 19:41N 40°14' E 004°32'0 3.9 23.6
2014-Oct-17 19:36N 40°14' E 004°31'0 0.0 23.6
2014-Oct-17 18:57N 40°14' E 004°31'0 0.0 23.7
2014-Oct-17 18:34N 40°14' E 004°31'1 1.7 23.7
2014-Oct-17 17:45N 40°14' E 004°33'1 1.5 23.7
2014-Oct-17 16:52N 40°13' E 004°32'0 0.0
2014-Oct-17 16:25N 40°13' E 004°32'0 1.2 23.8
2014-Oct-17 16:06N 40°13' E 004°32'0 0.2 23.8
2014-Oct-17 14:43N 40°13' E 004°32'0 4.5 23.8
2014-Oct-17 14:38N 40°13' E 004°33'0 1.7 23.8
2014-Oct-17 14:22N 40°13' E 004°33'1 0.3 23.8
2014-Oct-17 11:37N 40°13' E 004°34'0 0.0 23.7
2014-Oct-17 10:58N 40°13' E 004°34'0 0.8 23.7
2014-Oct-17 10:51N 40°13' E 004°34'0 0.3 23.7
2014-Oct-17 10:02N 40°13' E 004°34'0 0.1 23.6
2014-Oct-17 09:09N 40°13' E 004°34'0 0.0 23.6
2014-Oct-17 08:23N 40°13' E 004°34'0 1.1 23.6
2014-Oct-17 08:19N 40°13' E 004°34'0 7.7 23.6
2014-Oct-17 08:16N 40°13' E 004°34'1 0.4 23.6
2014-Oct-17 06:32N 40°13' E 004°35'0 0.0 23.6
2014-Oct-17 06:16N 40°13' E 004°35'0 0.0 23.6
2014-Oct-17 05:00N 40°13' E 004°35'0 4.2 23.6
2014-Oct-17 04:56N 40°13' E 004°34'0 0.0 23.6
2014-Oct-17 04:44N 40°13' E 004°34'0 0.0 23.6
2014-Oct-17 04:40N 40°13' E 004°34'1 3.6 23.6
2014-Oct-17 04:28N 40°13' E 004°33'0 0.0 23.6
2014-Oct-17 03:14N 40°13' E 004°33'0 0.0 23.6
2014-Oct-17 03:05N 40°13' E 004°33'0 1.6 23.6
2014-Oct-17 02:54N 40°14' E 004°34'0 5.4 23.6
2014-Oct-17 02:49N 40°13' E 004°33'0 0.0 23.6
2014-Oct-17 01:14N 40°13' E 004°33'0 0.0 23.6
2014-Oct-17 01:10N 40°13' E 004°33'0 0.2 23.6
2014-Oct-16 22:31N 40°13' E 004°34'1 0.8 23.6
2014-Oct-16 21:38N 40°13' E 004°33'0 0.0 23.6
2014-Oct-16 20:58N 40°13' E 004°33'0 0.5 23.6
2014-Oct-16 20:49N 40°13' E 004°33'0 0.0 23.6
2014-Oct-16 20:43N 40°13' E 004°33'0 0.0
2014-Oct-16 20:03N 40°13' E 004°33'0 4.2 23.7
2014-Oct-16 19:57N 40°13' E 004°34'0 0.3 23.7
2014-Oct-16 19:12N 40°13' E 004°34'0 0.0 23.7
2014-Oct-16 19:04N 40°13' E 004°34'0 0.0 23.7
2014-Oct-16 18:06N 40°13' E 004°34'0 0.1 23.7
2014-Oct-16 14:54N 40°13' E 004°34'0 6.3 23.7
2014-Oct-16 14:50N 40°13' E 004°34'0 0.2 23.7
2014-Oct-16 12:52N 40°13' E 004°34'0 0.5 23.7
2014-Oct-16 12:46N 40°13' E 004°35'0 0.0 23.7
2014-Oct-16 11:57N 40°13' E 004°35'2 2.6 23.7
2014-Oct-16 11:13N 40°13' E 004°32'0 0.0 23.7
2014-Oct-16 11:09N 40°13' E 004°32'0 0.0 23.7
2014-Oct-16 09:32N 40°13' E 004°32'215.0 23.7
2014-Oct-16 09:25N 40°13' E 004°34'0 0.1 23.7
2014-Oct-16 05:16N 40°13' E 004°34'0 0.7 23.7
2014-Oct-16 05:07N 40°12' E 004°34'0 0.0 23.7
2014-Oct-16 05:00N 40°12' E 004°34'0 0.1 23.7
2014-Oct-16 03:07N 40°13' E 004°34'1 0.2 23.7
2014-Oct-15 22:07N 40°12' E 004°35'0 0.2 23.7
2014-Oct-15 21:15N 40°12' E 004°35'0 0.2 23.8
2014-Oct-15 20:26N 40°12' E 004°35'1 6.8 23.8
2014-Oct-15 20:15N 40°13' E 004°36'0 0.0 23.8
2014-Oct-15 19:31N 40°13' E 004°36'1 0.4 23.8
2014-Oct-15 16:56N 40°12' E 004°35'1 0.9 23.9
2014-Oct-15 16:19N 40°12' E 004°36'1 0.5 23.9
2014-Oct-15 15:13N 40°12' E 004°35'0 2.6 23.9
2014-Oct-15 15:08N 40°12' E 004°35'0 0.7 23.9
2014-Oct-15 14:41N 40°12' E 004°35'0 0.0 23.9
2014-Oct-15 13:24N 40°12' E 004°35'0 0.0 23.9
2014-Oct-15 13:02N 40°12' E 004°35'0 0.0 23.9
2014-Oct-15 12:57N 40°12' E 004°35'0 0.1 23.9
2014-Oct-15 10:43N 40°12' E 004°36'0 2.7 23.8
2014-Oct-15 10:39N 40°12' E 004°36'110.8 23.8
2014-Oct-15 10:36N 40°12' E 004°36'0 0.0 23.8
2014-Oct-15 09:57N 40°12' E 004°36'0 1.8 23.8
2014-Oct-15 09:52N 40°12' E 004°36'0 0.2 23.8
2014-Oct-15 09:00N 40°12' E 004°36'2 1.0 23.7
2014-Oct-15 07:06N 40°12' E 004°38'0 0.0 23.8
2014-Oct-15 06:57N 40°12' E 004°38'0 0.4 23.8
2014-Oct-15 05:48N 40°12' E 004°38'1 3.9 23.8
2014-Oct-15 05:30N 40°11' E 004°36'1 6.4 23.8
2014-Oct-15 05:18N 40°11' E 004°38'0 0.0 23.8
2014-Oct-15 04:04N 40°11' E 004°38'0 0.0 23.8
2014-Oct-15 03:41N 40°11' E 004°38'114.9 23.8
2014-Oct-15 03:37N 40°11' E 004°37'0 0.0 23.8
2014-Oct-15 03:16N 40°11' E 004°37'0 1.6 23.8
2014-Oct-15 03:12N 40°11' E 004°37'1 0.6 23.8
2014-Oct-15 01:33N 40°11' E 004°38'0 0.0 23.9
2014-Oct-14 22:26N 40°11' E 004°38'0 0.0 23.9
2014-Oct-14 21:39N 40°11' E 004°38'0 1.4 23.9
2014-Oct-14 21:31N 40°11' E 004°38'0 0.0 23.9
2014-Oct-14 20:44N 40°11' E 004°38'0 0.0 23.9
2014-Oct-14 20:37N 40°11' E 004°38'1 0.4 23.9
2014-Oct-14 19:01N 40°12' E 004°39'1 0.4 23.9
2014-Oct-14 17:17N 40°11' E 004°39'246.2 23.9
2014-Oct-14 17:15N 40°12' E 004°40'2 0.9 23.9
2014-Oct-14 15:38N 40°11' E 004°38'0 0.3 23.9
2014-Oct-14 15:17N 40°11' E 004°38'0 0.9 23.9
2014-Oct-14 14:54N 40°11' E 004°39'1 1.0 23.9
2014-Oct-14 13:33N 40°10' E 004°38'0 0.0 23.9
2014-Oct-14 13:17N 40°10' E 004°38'0 0.0 23.9
2014-Oct-14 13:10N 40°10' E 004°38'1 0.5 23.9
2014-Oct-14 11:27N 40°09' E 004°38'0 0.0 23.9
2014-Oct-14 11:01N 40°09' E 004°38'0 0.0 23.9
2014-Oct-14 10:15N 40°09' E 004°38'0 0.0 23.9
2014-Oct-14 10:11N 40°09' E 004°38'1 0.7 23.9
2014-Oct-14 09:25N 40°10' E 004°39'0 0.9 23.9
2014-Oct-14 09:22N 40°10' E 004°39'2 2.6 23.9
2014-Oct-14 08:32N 40°08' E 004°40'2 2.4 23.9
2014-Oct-14 07:39N 40°10' E 004°39'243.0 23.9
2014-Oct-14 07:36N 40°08' E 004°40'232.2 23.9
2014-Oct-14 07:32N 40°10' E 004°39'0 1.1 23.9
2014-Oct-14 07:08N 40°09' E 004°39'0 0.0 23.9
2014-Oct-14 06:20N 40°09' E 004°39'0 0.0 23.9
2014-Oct-14 05:59N 40°09' E 004°39'0 0.3 24.0
2014-Oct-14 05:34N 40°09' E 004°39'0 0.0 24.0
2014-Oct-14 05:30N 40°09' E 004°39'2 1.3 24.0
2014-Oct-14 04:11N 40°10' E 004°41'0 0.0 24.0
2014-Oct-14 03:50N 40°10' E 004°41'0 0.0 24.0
2014-Oct-14 03:23N 40°10' E 004°41'233.5 24.0
2014-Oct-14 03:20N 40°10' E 004°39'0 0.0 24.0
2014-Oct-14 01:44N 40°10' E 004°39'1 0.4 24.0
2014-Oct-14 00:00N 40°10' E 004°39'0 0.0 24.0
2014-Oct-13 22:46N 40°10' E 004°39'0 6.9 24.0
2014-Oct-13 22:42N 40°10' E 004°40'1 1.4 24.1
2014-Oct-13 21:51N 40°09' E 004°39'0 0.0 24.1
2014-Oct-13 21:07N 40°09' E 004°39'1 4.4 24.1
2014-Oct-13 21:00N 40°10' E 004°39'1 0.7 24.1
2014-Oct-13 20:09N 40°09' E 004°39'0 0.0 24.1
2014-Oct-13 19:23N 40°09' E 004°39'0 6.8 24.1
2014-Oct-13 19:19N 40°09' E 004°39'0 0.3 24.1
2014-Oct-13 17:38N 40°09' E 004°40'0 0.0 24.2
2014-Oct-13 17:07N 40°09' E 004°40'0 0.0 24.2
2014-Oct-13 16:01N 40°09' E 004°40'0 0.0 24.2
2014-Oct-13 15:29N 40°09' E 004°40'0 1.1 24.2
2014-Oct-13 15:05N 40°08' E 004°39'0 0.0 24.2
2014-Oct-13 14:21N 40°08' E 004°39'0 0.0 24.2
2014-Oct-13 13:49N 40°08' E 004°39'0 0.5 24.2
2014-Oct-13 13:24N 40°08' E 004°39'0 0.1 24.2
2014-Oct-13 11:42N 40°08' E 004°39'0 0.0 24.2
2014-Oct-13 11:22N 40°08' E 004°39'1 0.5 24.2
2014-Oct-13 09:47N 40°09' E 004°39'0 0.0 24.2
2014-Oct-13 09:43N 40°09' E 004°39'0 0.0 24.2
2014-Oct-13 08:57N 40°09' E 004°39'0 0.0 24.2
2014-Oct-13 06:52N 40°09' E 004°39'0 0.0 24.2
2014-Oct-13 06:22N 40°09' E 004°39'0 0.5 24.2
2014-Oct-13 05:41N 40°09' E 004°39'0 0.0 24.2
2014-Oct-13 05:36N 40°09' E 004°39'0 0.0
2014-Oct-13 05:13N 40°09' E 004°39'0 0.0 24.2
2014-Oct-13 04:41N 40°09' E 004°39'0 0.4 24.2
2014-Oct-13 04:02N 40°09' E 004°39'0 0.3 24.2
2014-Oct-13 03:34N 40°09' E 004°39'0 0.0 24.2
2014-Oct-13 03:32N 40°09' E 004°39'124.9 24.2
2014-Oct-13 03:29N 40°08' E 004°39'1 0.5
2014-Oct-13 01:53N 40°08' E 004°38'0 0.1 24.3
2014-Oct-12 22:16N 40°08' E 004°39'0 0.0
2014-Oct-12 21:28N 40°08' E 004°39'1 8.2 24.3
2014-Oct-12 21:18N 40°07' E 004°37'0 0.0 24.3
2014-Oct-12 20:37N 40°07' E 004°37'0 0.0 24.3
2014-Oct-12 20:30N 40°07' E 004°37'0 0.0 24.3
2014-Oct-12 19:44N 40°07' E 004°37'339.0 24.3
2014-Oct-12 19:39N 40°09' E 004°41'0 0.0 24.3
2014-Oct-12 18:56N 40°09' E 004°41'0 0.0 24.3
2014-Oct-12 18:09N 40°09' E 004°41'1 1.4 24.4
2014-Oct-12 17:19N 40°08' E 004°40'0 0.0 24.4
2014-Oct-12 16:26N 40°08' E 004°40'0 0.0 24.4
2014-Oct-12 15:42N 40°08' E 004°40'0 0.0 24.4
2014-Oct-12 15:33N 40°08' E 004°40'0 0.0 24.4
2014-Oct-12 15:12N 40°08' E 004°40'0 0.0 24.4
2014-Oct-12 14:47N 40°08' E 004°40'1 0.6 24.4
2014-Oct-12 13:52N 40°08' E 004°39'0 0.0 24.4
2014-Oct-12 13:35N 40°08' E 004°39'0 0.1 24.4
2014-Oct-12 11:52N 40°08' E 004°39'0 1.4 24.4
2014-Oct-12 11:40N 40°08' E 004°39'0 0.3 24.3
2014-Oct-12 10:54N 40°08' E 004°39'1 7.4 24.3
2014-Oct-12 10:49N 40°07' E 004°39'0 0.1 24.3
2014-Oct-12 10:05N 40°07' E 004°39'1 1.7 24.3
2014-Oct-12 09:13N 40°07' E 004°37'1 1.4 24.3
2014-Oct-12 08:24N 40°07' E 004°38'0 5.3 24.3
2014-Oct-12 08:20N 40°07' E 004°39'0 0.0 24.3
2014-Oct-12 07:22N 40°07' E 004°39'0 0.0 24.3
2014-Oct-12 06:48N 40°07' E 004°39'1 4.7 24.3
2014-Oct-12 06:40N 40°06' E 004°38'0 0.1 24.3
2014-Oct-12 05:52N 40°06' E 004°38'0 0.6 24.3
2014-Oct-12 05:45N 40°06' E 004°38'0 0.1 24.3
2014-Oct-12 05:06N 40°06' E 004°38'0 0.3 24.3
2014-Oct-12 04:15N 40°06' E 004°38'0 0.8 24.3
2014-Oct-12 03:47N 40°06' E 004°39'0 3.3 24.3
2014-Oct-12 03:41N 40°06' E 004°38'0 0.0 24.3
2014-Oct-12 03:22N 40°06' E 004°38'0 0.0
2014-Oct-12 02:11N 40°06' E 004°38'0 0.0 24.3
2014-Oct-12 02:08N 40°06' E 004°38'0 0.0 24.3
2014-Oct-12 01:59N 40°06' E 004°38'0 0.0
2014-Oct-12 00:27N 40°06' E 004°38'0 5.7 24.4
2014-Oct-12 00:22N 40°06' E 004°38'0 0.0 24.4
2014-Oct-11 21:50N 40°06' E 004°38'0 1.3 24.5
2014-Oct-11 21:39N 40°06' E 004°38'0 0.0 24.5
2014-Oct-11 20:51N 40°06' E 004°38'0 0.0 24.5
2014-Oct-11 20:09N 40°06' E 004°38'0 5.8 24.5
2014-Oct-11 20:04N 40°05' E 004°38'0 0.1 24.5
2014-Oct-11 19:18N 40°05' E 004°38'0 1.5 24.5
2014-Oct-11 19:12N 40°05' E 004°38'0 0.0 24.5
2014-Oct-11 18:30N 40°05' E 004°38'0 0.0 24.5
2014-Oct-11 17:28N 40°05' E 004°38'0 0.7 24.6
2014-Oct-11 16:49N 40°05' E 004°39'028.5 24.7
2014-Oct-11 16:48N 40°05' E 004°38'0 0.5 24.7
2014-Oct-11 15:53N 40°05' E 004°39'0 5.0 24.8
2014-Oct-11 15:48N 40°05' E 004°38'0 0.4 24.8
2014-Oct-11 15:23N 40°05' E 004°38'0 0.1 24.9
2014-Oct-11 14:10N 40°05' E 004°38'0 6.5 25.1
2014-Oct-11 14:07N 40°05' E 004°38'0 0.9 25.1
2014-Oct-11 13:47N 40°05' E 004°38'0 0.1 25.1
2014-Oct-11 12:01N 40°05' E 004°38'0 0.0 25.1
2014-Oct-11 11:14N 40°05' E 004°38'0 0.5
2014-Oct-11 10:28N 40°05' E 004°38'0 0.0 24.8
2014-Oct-11 10:24N 40°05' E 004°38'011.1 24.8
2014-Oct-11 10:22N 40°04' E 004°38'0 0.1 24.8
2014-Oct-11 07:12N 40°04' E 004°37'0 0.8 24.3
2014-Oct-11 07:06N 40°04' E 004°37'0 0.0 24.3
2014-Oct-11 06:15N 40°04' E 004°37'0 0.7 24.3
2014-Oct-11 06:03N 40°04' E 004°37'230.6 24.3
2014-Oct-11 05:59N 40°03' E 004°40'0 0.0 24.3
2014-Oct-11 05:29N 40°03' E 004°40'2 1.9 24.4
2014-Oct-11 04:31N 40°04' E 004°38'0 1.3 24.3
2014-Oct-11 04:17N 40°04' E 004°37'   24.3

Dump ship's entire track history